createdAt,value
2018-06-22T00:00:35.158Z,1009.62
2018-06-22T00:01:35.142Z,1009.64
2018-06-22T00:02:35.143Z,1009.63
2018-06-22T00:03:35.116Z,1009.61
2018-06-22T00:04:35.115Z,1009.57
2018-06-22T00:05:35.101Z,1009.55
2018-06-22T00:06:35.085Z,1009.56
2018-06-22T00:07:35.090Z,1009.55
2018-06-22T00:08:35.069Z,1009.59
2018-06-22T00:09:35.057Z,1009.58
2018-06-22T00:10:35.047Z,1009.60
2018-06-22T00:11:35.038Z,1009.59
2018-06-22T00:12:35.031Z,1009.59
2018-06-22T00:13:35.027Z,1009.57
2018-06-22T00:14:34.998Z,1009.61
2018-06-22T00:15:34.986Z,1009.62
2018-06-22T00:16:34.974Z,1009.60
2018-06-22T00:17:34.966Z,1009.58
2018-06-22T00:18:34.974Z,1009.54
2018-06-22T00:19:34.949Z,1009.53
2018-06-22T00:20:34.931Z,1009.51
2018-06-22T00:21:34.921Z,1009.53
2018-06-22T00:22:34.913Z,1009.48
2018-06-22T00:23:34.906Z,1009.47
2018-06-22T00:24:34.907Z,1009.46
2018-06-22T00:25:34.882Z,1009.46
2018-06-22T00:26:34.869Z,1009.42
2018-06-22T00:27:34.856Z,1009.43
2018-06-22T00:28:34.843Z,1009.45
2018-06-22T00:29:34.848Z,1009.42
2018-06-22T00:30:34.831Z,1009.40
2018-06-22T00:31:34.820Z,1009.42
2018-06-22T00:32:34.807Z,1009.40
2018-06-22T00:33:34.794Z,1009.41
2018-06-22T00:34:34.795Z,1009.37
2018-06-22T00:35:34.767Z,1009.41
2018-06-22T00:36:34.763Z,1009.38
2018-06-22T00:37:34.750Z,1009.37
2018-06-22T00:38:34.737Z,1009.30
2018-06-22T00:39:34.740Z,1009.29
2018-06-22T00:40:34.714Z,1009.33
2018-06-22T00:41:34.708Z,1009.33
2018-06-22T00:42:34.695Z,1009.33
2018-06-22T00:43:34.689Z,1009.30
2018-06-22T00:44:34.680Z,1009.20
2018-06-22T00:45:34.677Z,1009.26
2018-06-22T00:46:34.650Z,1009.24
2018-06-22T00:47:34.643Z,1009.21
2018-06-22T00:48:34.627Z,1009.19
2018-06-22T00:49:34.620Z,1009.24
2018-06-22T00:50:34.620Z,1009.23
2018-06-22T00:51:34.601Z,1009.24
2018-06-22T00:52:34.583Z,1009.25
2018-06-22T00:53:34.573Z,1009.28
2018-06-22T00:54:34.567Z,1009.19
2018-06-22T00:55:34.572Z,1009.23
2018-06-22T00:56:34.547Z,1009.27
2018-06-22T00:57:34.537Z,1009.23
2018-06-22T00:58:34.525Z,1009.23
2018-06-22T00:59:34.507Z,1009.23
2018-06-22T01:00:34.509Z,1009.25
2018-06-22T01:01:34.500Z,1009.24
2018-06-22T01:02:34.477Z,1009.25
2018-06-22T01:03:34.475Z,1009.20
2018-06-22T01:04:34.462Z,1009.26
2018-06-22T01:05:34.449Z,1009.25
2018-06-22T01:06:34.447Z,1009.26
2018-06-22T01:07:34.421Z,1009.18
2018-06-22T01:08:34.418Z,1009.20
2018-06-22T01:09:34.402Z,1009.17
2018-06-22T01:10:34.392Z,1009.20
2018-06-22T01:11:34.379Z,1009.19
2018-06-22T01:12:34.377Z,1009.12
2018-06-22T01:13:34.357Z,1009.14
2018-06-22T01:14:34.352Z,1009.13
2018-06-22T01:15:34.341Z,1009.13
2018-06-22T01:16:34.328Z,1009.12
2018-06-22T01:17:34.329Z,1009.16
2018-06-22T01:18:34.302Z,1009.10
2018-06-22T01:19:34.294Z,1009.09
2018-06-22T01:20:34.280Z,1009.13
2018-06-22T01:21:34.268Z,1009.12
2018-06-22T01:22:34.279Z,1009.12
2018-06-22T01:23:34.253Z,1009.10
2018-06-22T01:24:34.234Z,1009.11
2018-06-22T01:25:34.227Z,1009.09
2018-06-22T01:26:34.220Z,1009.08
2018-06-22T01:27:34.211Z,1009.09
2018-06-22T01:28:34.211Z,1009.16
2018-06-22T01:29:34.185Z,1009.11
2018-06-22T01:30:34.172Z,1009.13
2018-06-22T01:31:34.163Z,1009.09
2018-06-22T01:32:34.148Z,1009.07
2018-06-22T01:33:34.164Z,1009.13
2018-06-22T01:34:34.131Z,1009.10
2018-06-22T01:35:34.122Z,1009.10
2018-06-22T01:36:34.114Z,1009.10
2018-06-22T01:37:34.100Z,1009.12
2018-06-22T01:38:34.088Z,1009.06
2018-06-22T01:39:34.086Z,1009.12
2018-06-22T01:40:34.070Z,1009.16
2018-06-22T01:41:34.056Z,1009.13
2018-06-22T01:42:34.055Z,1009.11
2018-06-22T01:43:34.029Z,1009.14
2018-06-22T01:44:34.046Z,1009.14
2018-06-22T01:45:34.010Z,1009.11
2018-06-22T01:46:34.001Z,1009.09
2018-06-22T01:47:33.993Z,1009.11
2018-06-22T01:48:33.981Z,1009.11
2018-06-22T01:49:33.979Z,1009.12
2018-06-22T01:50:33.956Z,1009.04
2018-06-22T01:51:33.942Z,1009.08
2018-06-22T01:52:33.927Z,1009.12
2018-06-22T01:53:33.922Z,1009.13
2018-06-22T01:54:33.923Z,1009.09
2018-06-22T01:55:33.905Z,1009.13
2018-06-22T01:56:33.886Z,1009.07
2018-06-22T01:57:33.878Z,1009.07
2018-06-22T01:58:33.868Z,1009.01
2018-06-22T01:59:33.877Z,1009.01
2018-06-22T02:00:33.852Z,1008.98
2018-06-22T02:01:33.837Z,1009.02
2018-06-22T02:02:33.823Z,1009.05
2018-06-22T02:03:33.808Z,1009.04
2018-06-22T02:04:33.799Z,1009.05
2018-06-22T02:05:33.802Z,1009.05
2018-06-22T02:06:33.787Z,1009.12
2018-06-22T02:07:33.777Z,1009.09
2018-06-22T02:08:33.772Z,1009.12
2018-06-22T02:09:33.753Z,1009.13
2018-06-22T02:10:33.752Z,1009.08
2018-06-22T02:11:33.721Z,1009.15
2018-06-22T02:12:33.722Z,1009.07
2018-06-22T02:13:33.712Z,1009.08
2018-06-22T02:14:33.694Z,1009.11
2018-06-22T02:15:33.681Z,1009.06
2018-06-22T02:16:33.691Z,1009.10
2018-06-22T02:17:33.663Z,1009.08
2018-06-22T02:18:33.654Z,1009.11
2018-06-22T02:19:33.643Z,1009.15
2018-06-22T02:20:33.633Z,1009.13
2018-06-22T02:21:33.632Z,1009.15
2018-06-22T02:22:33.608Z,1009.12
2018-06-22T02:23:33.598Z,1009.10
2018-06-22T02:24:33.585Z,1009.11
2018-06-22T02:25:33.674Z,1009.09
2018-06-22T02:26:33.580Z,1009.07
2018-06-22T02:27:33.556Z,1008.99
2018-06-22T02:28:33.541Z,1009.01
2018-06-22T02:29:33.525Z,1009.00
2018-06-22T02:30:33.527Z,1009.05
2018-06-22T02:31:33.528Z,1009.08
2018-06-22T02:32:33.499Z,1009.08
2018-06-22T02:33:33.490Z,1009.11
2018-06-22T02:34:33.473Z,1009.05
2018-06-22T02:35:33.463Z,1009.01
2018-06-22T02:36:33.458Z,1009.09
2018-06-22T02:37:33.453Z,1009.06
2018-06-22T02:38:33.436Z,1008.99
2018-06-22T02:39:33.424Z,1009.07
2018-06-22T02:40:33.411Z,1009.03
2018-06-22T02:41:33.404Z,1009.03
2018-06-22T02:42:33.400Z,1009.04
2018-06-22T02:43:33.376Z,1008.96
2018-06-22T02:44:33.374Z,1008.97
2018-06-22T02:45:33.361Z,1008.96
2018-06-22T02:46:33.342Z,1008.99
2018-06-22T02:47:33.348Z,1008.95
2018-06-22T02:48:33.324Z,1008.97
2018-06-22T02:49:33.309Z,1008.95
2018-06-22T02:50:33.308Z,1008.91
2018-06-22T02:51:33.294Z,1008.95
2018-06-22T02:52:33.281Z,1008.96
2018-06-22T02:53:33.292Z,1008.95
2018-06-22T02:54:33.253Z,1008.98
2018-06-22T02:55:33.251Z,1008.93
2018-06-22T02:56:33.234Z,1008.94
2018-06-22T02:57:33.221Z,1008.95
2018-06-22T02:58:33.219Z,1008.97
2018-06-22T02:59:33.218Z,1009.00
2018-06-22T03:00:33.191Z,1009.01
2018-06-22T03:01:33.181Z,1008.96
2018-06-22T03:02:33.175Z,1008.91
2018-06-22T03:03:33.161Z,1008.92
2018-06-22T03:04:33.165Z,1008.97
2018-06-22T03:05:33.143Z,1008.93
2018-06-22T03:06:33.124Z,1008.95
2018-06-22T03:07:33.114Z,1008.96
2018-06-22T03:08:33.132Z,1008.94
2018-06-22T03:09:33.089Z,1008.97
2018-06-22T03:10:33.103Z,1008.95
2018-06-22T03:11:33.075Z,1008.95
2018-06-22T03:12:33.062Z,1009.07
2018-06-22T03:13:33.053Z,1008.97
2018-06-22T03:14:33.035Z,1008.97
2018-06-22T03:15:33.028Z,1008.95
2018-06-22T03:16:33.029Z,1008.93
2018-06-22T03:17:33.013Z,1008.94
2018-06-22T03:18:33.002Z,1008.91
2018-06-22T03:19:32.987Z,1008.97
2018-06-22T03:20:32.977Z,1008.96
2018-06-22T03:21:32.972Z,1009.05
2018-06-22T03:22:32.956Z,1009.00
2018-06-22T03:23:32.943Z,1009.03
2018-06-22T03:24:32.934Z,1009.07
2018-06-22T03:25:32.928Z,1008.95
2018-06-22T03:26:32.921Z,1008.88
2018-06-22T03:27:32.898Z,1008.94
2018-06-22T03:28:32.887Z,1008.99
2018-06-22T03:29:32.873Z,1009.00
2018-06-22T03:30:32.870Z,1008.98
2018-06-22T03:31:32.861Z,1008.97
2018-06-22T03:32:32.855Z,1008.94
2018-06-22T03:33:32.833Z,1008.91
2018-06-22T03:34:32.828Z,1008.98
2018-06-22T03:35:32.813Z,1008.91
2018-06-22T03:36:32.801Z,1008.86
2018-06-22T03:37:32.807Z,1008.89
2018-06-22T03:38:32.779Z,1008.88
2018-06-22T03:39:32.797Z,1008.86
2018-06-22T03:40:32.758Z,1008.89
2018-06-22T03:41:32.743Z,1008.84
2018-06-22T03:42:32.749Z,1008.84
2018-06-22T03:43:32.726Z,1008.84
2018-06-22T03:44:32.722Z,1008.83
2018-06-22T03:45:32.708Z,1008.77
2018-06-22T03:46:32.699Z,1008.77
2018-06-22T03:47:32.699Z,1008.74
2018-06-22T03:48:32.675Z,1008.78
2018-06-22T03:49:32.664Z,1008.90
2018-06-22T03:50:32.648Z,1008.89
2018-06-22T03:51:32.637Z,1008.89
2018-06-22T03:52:32.628Z,1008.87
2018-06-22T03:53:32.624Z,1008.83
2018-06-22T03:54:32.611Z,1008.82
2018-06-22T03:55:32.635Z,1008.73
2018-06-22T03:56:32.587Z,1008.75
2018-06-22T03:57:32.576Z,1008.90
2018-06-22T03:58:32.568Z,1008.88
2018-06-22T03:59:32.550Z,1008.82
2018-06-22T04:00:32.551Z,1008.84
2018-06-22T04:01:32.524Z,1008.81
2018-06-22T04:02:32.522Z,1008.80
2018-06-22T04:03:32.525Z,1008.80
2018-06-22T04:04:32.494Z,1008.78
2018-06-22T04:05:32.480Z,1008.73
2018-06-22T04:06:32.485Z,1008.81
2018-06-22T04:07:32.465Z,1008.81
2018-06-22T04:08:32.455Z,1008.70
2018-06-22T04:09:32.459Z,1008.75
2018-06-22T04:10:32.425Z,1008.75
2018-06-22T04:11:32.421Z,1008.71
2018-06-22T04:12:32.410Z,1008.71
2018-06-22T04:13:32.398Z,1008.69
2018-06-22T04:14:32.405Z,1008.64
2018-06-22T04:15:32.378Z,1008.56
2018-06-22T04:16:32.367Z,1008.60
2018-06-22T04:17:32.357Z,1008.59
2018-06-22T04:18:32.344Z,1008.59
2018-06-22T04:19:32.335Z,1008.56
2018-06-22T04:20:32.340Z,1008.58
2018-06-22T04:21:32.318Z,1008.56
2018-06-22T04:22:32.305Z,1008.53
2018-06-22T04:23:32.288Z,1008.61
2018-06-22T04:24:32.277Z,1008.60
2018-06-22T04:25:32.714Z,1008.66
2018-06-22T04:26:32.262Z,1008.60
2018-06-22T04:27:32.247Z,1008.63
2018-06-22T04:28:32.239Z,1008.62
2018-06-22T04:29:32.227Z,1008.55
2018-06-22T04:30:32.215Z,1008.48
2018-06-22T04:31:32.218Z,1008.60
2018-06-22T04:32:32.191Z,1008.64
2018-06-22T04:33:32.176Z,1008.63
2018-06-22T04:34:32.173Z,1008.59
2018-06-22T04:35:32.161Z,1008.64
2018-06-22T04:36:32.155Z,1008.60
2018-06-22T04:37:32.151Z,1008.60
2018-06-22T04:38:32.146Z,1008.56
2018-06-22T04:39:32.119Z,1008.55
2018-06-22T04:40:32.111Z,1008.59
2018-06-22T04:41:32.097Z,1008.58
2018-06-22T04:42:32.079Z,1008.61
2018-06-22T04:43:32.084Z,1008.65
2018-06-22T04:44:32.059Z,1008.65
2018-06-22T04:45:32.045Z,1008.59
2018-06-22T04:46:32.041Z,1008.58
2018-06-22T04:47:32.033Z,1008.55
2018-06-22T04:48:32.028Z,1008.56
2018-06-22T04:49:32.007Z,1008.62
2018-06-22T04:50:31.991Z,1008.61
2018-06-22T04:51:31.983Z,1008.66
2018-06-22T04:52:31.977Z,1008.69
2018-06-22T04:53:31.984Z,1008.63
2018-06-22T04:54:31.946Z,1008.58
2018-06-22T04:55:31.938Z,1008.58
2018-06-22T04:56:31.928Z,1008.60
2018-06-22T04:57:31.919Z,1008.59
2018-06-22T04:58:31.912Z,1008.56
2018-06-22T04:59:31.912Z,1008.58
2018-06-22T05:00:31.886Z,1008.66
2018-06-22T05:01:31.877Z,1008.57
2018-06-22T05:02:31.858Z,1008.62
2018-06-22T05:03:31.884Z,1008.58
2018-06-22T05:04:31.837Z,1008.69
2018-06-22T05:05:31.838Z,1008.64
2018-06-22T05:06:31.821Z,1008.69
2018-06-22T05:07:31.810Z,1008.63
2018-06-22T05:08:31.795Z,1008.52
2018-06-22T05:09:31.780Z,1008.53
2018-06-22T05:10:31.791Z,1008.62
2018-06-22T05:11:31.767Z,1008.64
2018-06-22T05:12:31.753Z,1008.62
2018-06-22T05:13:31.747Z,1008.66
2018-06-22T05:14:31.729Z,1008.67
2018-06-22T05:15:31.734Z,1008.71
2018-06-22T05:16:31.711Z,1008.72
2018-06-22T05:17:31.699Z,1008.72
2018-06-22T05:18:31.694Z,1008.68
2018-06-22T05:19:31.678Z,1008.65
2018-06-22T05:20:31.668Z,1008.69
2018-06-22T05:21:31.683Z,1008.77
2018-06-22T05:22:31.695Z,1008.78
2018-06-22T05:23:31.632Z,1008.78
2018-06-22T05:24:31.623Z,1008.83
2018-06-22T05:25:31.615Z,1008.85
2018-06-22T05:26:31.612Z,1008.93
2018-06-22T05:27:31.589Z,1008.88
2018-06-22T05:28:31.579Z,1008.94
2018-06-22T05:29:31.565Z,1008.81
2018-06-22T05:30:31.559Z,1008.88
2018-06-22T05:31:31.548Z,1008.82
2018-06-22T05:32:31.551Z,1008.82
2018-06-22T05:33:31.526Z,1008.86
2018-06-22T05:34:31.517Z,1008.89
2018-06-22T05:35:31.499Z,1008.90
2018-06-22T05:36:31.491Z,1008.94
2018-06-22T05:37:31.492Z,1008.90
2018-06-22T05:38:31.478Z,1008.92
2018-06-22T05:39:31.454Z,1008.88
2018-06-22T05:40:31.446Z,1008.87
2018-06-22T05:41:31.474Z,1008.94
2018-06-22T05:42:31.423Z,1008.95
2018-06-22T05:43:31.423Z,1008.93
2018-06-22T05:44:31.403Z,1008.91
2018-06-22T05:45:31.391Z,1008.90
2018-06-22T05:46:31.387Z,1008.97
2018-06-22T05:47:31.363Z,1009.02
2018-06-22T05:48:31.381Z,1008.99
2018-06-22T05:49:31.347Z,1009.04
2018-06-22T05:50:31.334Z,1009.01
2018-06-22T05:51:31.321Z,1009.06
2018-06-22T05:52:31.312Z,1009.11
2018-06-22T05:53:31.324Z,1009.09
2018-06-22T05:54:31.283Z,1009.12
2018-06-22T05:55:31.275Z,1009.08
2018-06-22T05:56:31.355Z,1009.00
2018-06-22T05:57:31.259Z,1008.98
2018-06-22T05:58:31.242Z,1008.97
2018-06-22T05:59:31.241Z,1009.02
2018-06-22T06:00:31.221Z,1009.05
2018-06-22T06:01:31.205Z,1009.05
2018-06-22T06:02:31.204Z,1009.12
2018-06-22T06:03:31.256Z,1009.02
2018-06-22T06:04:31.199Z,1009.10
2018-06-22T06:05:31.170Z,1009.08
2018-06-22T06:06:31.151Z,1009.08
2018-06-22T06:07:31.147Z,1008.98
2018-06-22T06:08:31.136Z,1008.98
2018-06-22T06:09:31.130Z,1009.02
2018-06-22T06:10:31.127Z,1009.06
2018-06-22T06:11:31.103Z,1009.03
2018-06-22T06:12:31.104Z,1009.02
2018-06-22T06:13:31.074Z,1009.03
2018-06-22T06:14:31.076Z,1009.02
2018-06-22T06:15:31.069Z,1009.09
2018-06-22T06:16:31.051Z,1009.06
2018-06-22T06:17:31.040Z,1009.06
2018-06-22T06:18:31.022Z,1009.04
2018-06-22T06:19:31.014Z,1008.98
2018-06-22T06:20:31.023Z,1009.01
2018-06-22T06:21:30.991Z,1008.90
2018-06-22T06:22:30.989Z,1008.96
2018-06-22T06:23:30.972Z,1008.95
2018-06-22T06:24:30.962Z,1008.95
2018-06-22T06:25:30.951Z,1009.06
2018-06-22T06:26:30.947Z,1009.07
2018-06-22T06:27:30.924Z,1009.04
2018-06-22T06:28:30.917Z,1009.11
2018-06-22T06:29:30.911Z,1009.17
2018-06-22T06:30:30.893Z,1009.18
2018-06-22T06:31:30.881Z,1009.16
2018-06-22T06:32:30.879Z,1009.19
2018-06-22T06:33:30.854Z,1009.16
2018-06-22T06:34:30.852Z,1009.23
2018-06-22T06:35:30.840Z,1009.18
2018-06-22T06:36:30.836Z,1009.21
2018-06-22T06:37:30.827Z,1009.25
2018-06-22T06:38:30.805Z,1009.18
2018-06-22T06:39:30.786Z,1009.20
2018-06-22T06:40:30.779Z,1009.20
2018-06-22T06:41:30.767Z,1009.26
2018-06-22T06:42:30.772Z,1009.23
2018-06-22T06:43:30.753Z,1009.25
2018-06-22T06:44:30.745Z,1009.22
2018-06-22T06:45:30.723Z,1009.20
2018-06-22T06:46:30.717Z,1009.24
2018-06-22T06:47:30.725Z,1009.23
2018-06-22T06:48:30.699Z,1009.24
2018-06-22T06:49:30.731Z,1009.21
2018-06-22T06:50:30.690Z,1009.27
2018-06-22T06:51:30.656Z,1009.21
2018-06-22T06:52:30.645Z,1009.17
2018-06-22T06:53:30.655Z,1009.16
2018-06-22T06:54:30.636Z,1009.16
2018-06-22T06:55:30.620Z,1009.14
2018-06-22T06:56:30.614Z,1009.15
2018-06-22T06:57:30.599Z,1009.21
2018-06-22T06:58:30.582Z,1009.24
2018-06-22T06:59:30.581Z,1009.22
2018-06-22T07:00:30.566Z,1009.19
2018-06-22T07:01:30.552Z,1009.26
2018-06-22T07:02:30.546Z,1009.16
2018-06-22T07:03:30.526Z,1009.24
2018-06-22T07:04:30.526Z,1009.19
2018-06-22T07:05:30.507Z,1009.23
2018-06-22T07:06:30.499Z,1009.24
2018-06-22T07:07:30.489Z,1009.25
2018-06-22T07:08:30.480Z,1009.36
2018-06-22T07:09:30.480Z,1009.36
2018-06-22T07:10:30.452Z,1009.34
2018-06-22T07:11:30.443Z,1009.24
2018-06-22T07:12:30.429Z,1009.34
2018-06-22T07:13:30.417Z,1009.30
2018-06-22T07:14:30.428Z,1009.31
2018-06-22T07:15:30.406Z,1009.33
2018-06-22T07:16:30.381Z,1009.34
2018-06-22T07:17:30.375Z,1009.34
2018-06-22T07:18:30.367Z,1009.33
2018-06-22T07:19:30.358Z,1009.31
2018-06-22T07:20:30.368Z,1009.24
2018-06-22T07:21:30.335Z,1009.29
2018-06-22T07:22:30.319Z,1009.34
2018-06-22T07:23:30.394Z,1009.35
2018-06-22T07:24:30.294Z,1009.44
2018-06-22T07:25:30.289Z,1009.49
2018-06-22T07:26:30.291Z,1009.37
2018-06-22T07:27:30.273Z,1009.43
2018-06-22T07:28:30.262Z,1009.46
2018-06-22T07:29:30.246Z,1009.37
2018-06-22T07:30:30.263Z,1009.43
2018-06-22T07:31:30.238Z,1009.50
2018-06-22T07:32:30.216Z,1009.53
2018-06-22T07:33:30.203Z,1009.42
2018-06-22T07:34:30.191Z,1009.44
2018-06-22T07:35:30.175Z,1009.39
2018-06-22T07:36:30.164Z,1009.43
2018-06-22T07:37:30.166Z,1009.39
2018-06-22T07:38:30.147Z,1009.46
2018-06-22T07:39:30.142Z,1009.43
2018-06-22T07:40:30.130Z,1009.42
2018-06-22T07:41:30.115Z,1009.48
2018-06-22T07:42:30.117Z,1009.50
2018-06-22T07:43:30.091Z,1009.50
2018-06-22T07:44:30.076Z,1009.50
2018-06-22T07:45:30.067Z,1009.43
2018-06-22T07:46:30.069Z,1009.48
2018-06-22T07:47:30.052Z,1009.44
2018-06-22T07:48:30.044Z,1009.45
2018-06-22T07:49:30.032Z,1009.53
2018-06-22T07:50:30.015Z,1009.44
2018-06-22T07:51:30.010Z,1009.55
2018-06-22T07:52:29.997Z,1009.37
2018-06-22T07:53:30.000Z,1009.56
2018-06-22T07:54:29.972Z,1009.52
2018-06-22T07:55:29.957Z,1009.50
2018-06-22T07:56:29.949Z,1009.51
2018-06-22T07:57:29.941Z,1009.40
2018-06-22T07:58:29.929Z,1009.47
2018-06-22T07:59:29.932Z,1009.53
2018-06-22T08:00:29.911Z,1009.42
2018-06-22T08:01:29.900Z,1009.54
2018-06-22T08:02:29.884Z,1009.54
2018-06-22T08:03:29.869Z,1009.46
2018-06-22T08:04:29.883Z,1009.45
2018-06-22T08:05:29.851Z,1009.45
2018-06-22T08:06:29.837Z,1009.48
2018-06-22T08:07:29.825Z,1009.44
2018-06-22T08:08:29.818Z,1009.54
2018-06-22T08:09:29.804Z,1009.51
2018-06-22T08:10:29.813Z,1009.50
2018-06-22T08:11:29.788Z,1009.56
2018-06-22T08:12:29.777Z,1009.48
2018-06-22T08:13:29.764Z,1009.55
2018-06-22T08:14:29.751Z,1009.53
2018-06-22T08:15:29.735Z,1009.47
2018-06-22T08:16:29.736Z,1009.48
2018-06-22T08:17:29.723Z,1009.51
2018-06-22T08:18:29.711Z,1009.49
2018-06-22T08:19:29.709Z,1009.49
2018-06-22T08:20:29.681Z,1009.50
2018-06-22T08:21:29.690Z,1009.44
2018-06-22T08:22:29.670Z,1009.47
2018-06-22T08:23:29.677Z,1009.49
2018-06-22T08:24:29.646Z,1009.57
2018-06-22T08:25:29.632Z,1009.57
2018-06-22T08:26:29.620Z,1009.50
2018-06-22T08:27:29.622Z,1009.52
2018-06-22T08:28:29.596Z,1009.45
2018-06-22T08:29:29.589Z,1009.38
2018-06-22T08:30:29.579Z,1009.52
2018-06-22T08:31:29.579Z,1009.50
2018-06-22T08:32:29.574Z,1009.48
2018-06-22T08:33:29.549Z,1009.51
2018-06-22T08:34:29.535Z,1009.52
2018-06-22T08:35:29.516Z,1009.50
2018-06-22T08:36:29.517Z,1009.60
2018-06-22T08:37:29.508Z,1009.57
2018-06-22T08:38:29.500Z,1009.42
2018-06-22T08:39:29.475Z,1009.99
2018-06-22T08:40:29.463Z,1009.56
2018-06-22T08:41:29.500Z,1009.41
2018-06-22T08:42:29.452Z,1009.43
2018-06-22T08:43:29.451Z,1009.55
2018-06-22T08:44:29.428Z,1009.53
2018-06-22T08:45:29.414Z,1010.01
2018-06-22T08:46:29.402Z,1009.44
2018-06-22T08:47:29.387Z,1009.53
2018-06-22T08:48:29.393Z,1009.51
2018-06-22T08:49:29.368Z,1009.58
2018-06-22T08:50:29.361Z,1009.56
2018-06-22T08:51:29.360Z,1009.50
2018-06-22T08:52:29.332Z,1009.56
2018-06-22T08:53:29.335Z,1009.61
2018-06-22T08:54:29.317Z,1009.60
2018-06-22T08:55:29.309Z,1009.60
2018-06-22T08:56:29.295Z,1009.53
2018-06-22T08:57:29.286Z,1009.54
2018-06-22T08:58:29.285Z,1009.64
2018-06-22T08:59:29.264Z,1009.66
2018-06-22T09:00:29.248Z,1009.73
2018-06-22T09:01:29.236Z,1009.62
2018-06-22T09:02:29.232Z,1009.62
2018-06-22T09:03:29.241Z,1009.66
2018-06-22T09:04:29.210Z,1009.71
2018-06-22T09:05:29.196Z,1009.68
2018-06-22T09:06:29.183Z,1009.62
2018-06-22T09:07:29.167Z,1009.69
2018-06-22T09:08:29.164Z,1009.70
2018-06-22T09:09:29.161Z,1009.75
2018-06-22T09:10:29.140Z,1009.76
2018-06-22T09:11:29.124Z,1009.72
2018-06-22T09:12:29.154Z,1009.84
2018-06-22T09:13:29.103Z,1009.84
2018-06-22T09:14:29.171Z,1009.79
2018-06-22T09:15:29.085Z,1009.78
2018-06-22T09:16:29.074Z,1009.88
2018-06-22T09:17:29.062Z,1009.78
2018-06-22T09:18:29.048Z,1009.86
2018-06-22T09:19:29.034Z,1010.20
2018-06-22T09:20:29.037Z,1009.77
2018-06-22T09:21:29.014Z,1009.86
2018-06-22T09:22:29.008Z,1009.84
2018-06-22T09:23:29.000Z,1009.77
2018-06-22T09:24:28.984Z,1009.74
2018-06-22T09:25:28.974Z,1009.77
2018-06-22T09:26:28.977Z,1009.76
2018-06-22T09:27:28.956Z,1009.77
2018-06-22T09:28:28.947Z,1009.70
2018-06-22T09:29:28.935Z,1009.77
2018-06-22T09:30:28.921Z,1009.78
2018-06-22T09:31:28.924Z,1009.78
2018-06-22T09:32:28.894Z,1009.81
2018-06-22T09:33:28.886Z,1009.80
2018-06-22T09:34:28.876Z,1009.85
2018-06-22T09:35:28.873Z,1009.90
2018-06-22T09:36:28.905Z,1009.83
2018-06-22T09:37:28.860Z,1009.90
2018-06-22T09:38:28.829Z,1009.89
2018-06-22T09:39:28.817Z,1009.92
2018-06-22T09:40:28.813Z,1009.95
2018-06-22T09:41:28.800Z,1009.93
2018-06-22T09:42:28.807Z,1009.99
2018-06-22T09:43:28.784Z,1010.07
2018-06-22T09:44:28.765Z,1010.08
2018-06-22T09:45:28.751Z,1010.07
2018-06-22T09:46:28.754Z,1010.08
2018-06-22T09:47:28.739Z,1009.97
2018-06-22T09:48:28.741Z,1010.00
2018-06-22T09:49:28.713Z,1009.93
2018-06-22T09:50:28.702Z,1009.94
2018-06-22T09:51:28.688Z,1009.96
2018-06-22T09:52:28.673Z,1009.97
2018-06-22T09:53:28.686Z,1009.96
2018-06-22T09:54:28.663Z,1010.03
2018-06-22T09:55:28.649Z,1009.97
2018-06-22T09:56:28.630Z,1010.02
2018-06-22T09:57:28.621Z,1010.00
2018-06-22T09:58:28.617Z,1009.97
2018-06-22T09:59:28.617Z,1010.04
2018-06-22T10:00:28.593Z,1009.97
2018-06-22T10:01:28.580Z,1009.98
2018-06-22T10:02:28.568Z,1010.03
2018-06-22T10:03:28.553Z,1010.05
2018-06-22T10:04:28.554Z,1010.05
2018-06-22T10:05:28.535Z,1009.99
2018-06-22T10:06:28.526Z,1009.98
2018-06-22T10:07:28.519Z,1010.08
2018-06-22T10:08:28.508Z,1010.08
2018-06-22T10:09:28.511Z,1010.06
2018-06-22T10:10:28.479Z,1010.04
2018-06-22T10:11:28.488Z,1010.07
2018-06-22T10:12:28.466Z,1010.07
2018-06-22T10:13:28.450Z,1010.10
2018-06-22T10:14:28.436Z,1010.06
2018-06-22T10:15:28.438Z,1010.09
2018-06-22T10:16:28.413Z,1010.09
2018-06-22T10:17:28.437Z,1010.13
2018-06-22T10:18:28.434Z,1010.06
2018-06-22T10:19:28.390Z,1010.04
2018-06-22T10:20:28.388Z,1010.11
2018-06-22T10:21:28.366Z,1010.12
2018-06-22T10:22:28.354Z,1010.06
2018-06-22T10:23:28.336Z,1010.14
2018-06-22T10:24:28.326Z,1010.10
2018-06-22T10:25:28.328Z,1010.05
2018-06-22T10:26:28.310Z,1010.05
2018-06-22T10:27:28.303Z,1010.03
2018-06-22T10:28:28.284Z,1010.07
2018-06-22T10:29:28.271Z,1010.08
2018-06-22T10:30:28.282Z,1010.03
2018-06-22T10:31:28.260Z,1010.15
2018-06-22T10:32:28.243Z,1010.19
2018-06-22T10:33:28.233Z,1010.13
2018-06-22T10:34:28.220Z,1010.08
2018-06-22T10:35:28.220Z,1010.03
2018-06-22T10:36:28.192Z,1010.03
2018-06-22T10:37:28.188Z,1010.07
2018-06-22T10:38:28.176Z,1010.06
2018-06-22T10:39:28.170Z,1010.05
2018-06-22T10:40:28.174Z,1010.07
2018-06-22T10:41:28.145Z,1010.14
2018-06-22T10:42:28.129Z,1010.16
2018-06-22T10:43:28.120Z,1010.17
2018-06-22T10:44:28.115Z,1010.19
2018-06-22T10:45:28.110Z,1010.14
2018-06-22T10:46:28.087Z,1010.13
2018-06-22T10:47:28.072Z,1010.16
2018-06-22T10:48:28.064Z,1010.07
2018-06-22T10:49:28.051Z,1010.19
2018-06-22T10:50:28.055Z,1010.12
2018-06-22T10:51:28.072Z,1010.07
2018-06-22T10:52:28.033Z,1010.16
2018-06-22T10:53:28.015Z,1010.15
2018-06-22T10:54:27.995Z,1010.16
2018-06-22T10:55:28.009Z,1010.10
2018-06-22T10:56:27.982Z,1010.18
2018-06-22T10:57:27.963Z,1010.19
2018-06-22T10:58:27.961Z,1010.17
2018-06-22T10:59:27.946Z,1010.23
2018-06-22T11:00:27.935Z,1010.19
2018-06-22T11:01:27.936Z,1010.22
2018-06-22T11:02:27.919Z,1010.23
2018-06-22T11:03:27.902Z,1010.26
2018-06-22T11:04:27.891Z,1010.24
2018-06-22T11:05:27.885Z,1010.24
2018-06-22T11:06:27.864Z,1010.23
2018-06-22T11:07:27.877Z,1010.22
2018-06-22T11:08:27.846Z,1010.23
2018-06-22T11:09:27.832Z,1010.25
2018-06-22T11:10:27.834Z,1010.23
2018-06-22T11:11:27.816Z,1010.25
2018-06-22T11:12:27.817Z,1010.25
2018-06-22T11:13:27.837Z,1010.25
2018-06-22T11:14:27.781Z,1010.26
2018-06-22T11:15:27.768Z,1010.25
2018-06-22T11:16:27.758Z,1010.31
2018-06-22T11:17:27.765Z,1010.20
2018-06-22T11:18:27.867Z,1010.25
2018-06-22T11:19:27.722Z,1010.29
2018-06-22T11:20:27.712Z,1010.31
2018-06-22T11:21:27.698Z,1010.28
2018-06-22T11:22:27.698Z,1010.25
2018-06-22T11:23:27.694Z,1010.21
2018-06-22T11:24:27.701Z,1010.26
2018-06-22T11:25:27.669Z,1010.27
2018-06-22T11:26:27.641Z,1010.32
2018-06-22T11:27:27.685Z,1010.24
2018-06-22T11:28:27.635Z,1010.28
2018-06-22T11:29:27.609Z,1010.28
2018-06-22T11:30:27.612Z,1010.27
2018-06-22T11:31:27.595Z,1010.28
2018-06-22T11:32:27.583Z,1010.33
2018-06-22T11:33:27.578Z,1010.28
2018-06-22T11:34:27.562Z,1010.34
2018-06-22T11:35:27.549Z,1010.33
2018-06-22T11:36:27.572Z,1010.29
2018-06-22T11:37:27.529Z,1010.29
2018-06-22T11:38:27.530Z,1010.28
2018-06-22T11:39:27.500Z,1010.26
2018-06-22T11:40:27.492Z,1010.26
2018-06-22T11:41:27.481Z,1010.22
2018-06-22T11:42:27.478Z,1010.25
2018-06-22T11:43:27.464Z,1010.22
2018-06-22T11:44:27.461Z,1010.26
2018-06-22T11:45:27.441Z,1010.20
2018-06-22T11:46:27.425Z,1010.23
2018-06-22T11:47:27.416Z,1010.28
2018-06-22T11:48:27.408Z,1010.33
2018-06-22T11:49:27.409Z,1010.22
2018-06-22T11:50:27.383Z,1010.20
2018-06-22T11:51:27.391Z,1010.28
2018-06-22T11:52:27.361Z,1010.27
2018-06-22T11:53:27.360Z,1010.27
2018-06-22T11:54:27.363Z,1010.25
2018-06-22T11:55:27.333Z,1010.29
2018-06-22T11:56:27.324Z,1010.25
2018-06-22T11:57:27.313Z,1010.35
2018-06-22T11:58:27.296Z,1010.32
2018-06-22T11:59:27.291Z,1010.32
2018-06-22T12:00:27.288Z,1010.32
2018-06-22T12:01:27.267Z,1010.28
2018-06-22T12:02:27.264Z,1010.24
2018-06-22T12:03:27.246Z,1010.23
2018-06-22T12:04:27.239Z,1010.27
2018-06-22T12:05:27.235Z,1010.32